Time,TemperatureF,DewpointF,PressureIn,WindDirection,WindDirectionDegrees,WindSpeedMPH,WindSpeedGustMPH,Humidity,HourlyPrecipIn,Conditions,Clouds,dailyrainin,SoftwareType,DateUTC
2013-10-23 00:13:00,37.4,36.9,30.05,NNW,337,0.0,-999.0,98,-99.99,,,0.00,Acu-Link.com,2013-10-23 07:13:00,
2013-10-23 00:28:00,37.4,36.9,30.04,NNW,337,0.0,-999.0,98,-99.99,,,0.00,Acu-Link.com,2013-10-23 07:28:00,
2013-10-23 00:43:00,39.2,38.7,30.04,SSE,157,0.0,-999.0,98,-99.99,,,0.00,Acu-Link.com,2013-10-23 07:43:00,
2013-10-23 00:58:00,37.4,36.9,30.04,WNW,292,0.0,-999.0,98,-99.99,,,0.00,Acu-Link.com,2013-10-23 07:58:00,
2013-10-23 01:13:00,37.4,36.9,30.04,ESE,112,0.0,-999.0,98,-99.99,,,0.00,Acu-Link.com,2013-10-23 08:13:00,
2013-10-23 01:29:00,37.4,36.9,30.04,ESE,112,0.0,-999.0,98,-99.99,,,0.00,Acu-Link.com,2013-10-23 08:29:00,
2013-10-23 01:44:00,37.4,36.9,30.05,ESE,112,0.0,-999.0,98,-99.99,,,0.00,Acu-Link.com,2013-10-23 08:44:00,
2013-10-23 01:59:00,37.4,36.9,30.04,ESE,112,0.0,-999.0,98,-99.99,,,0.00,Acu-Link.com,2013-10-23 08:59:00,
2013-10-23 02:14:00,37.4,36.9,30.04,SE,135,0.0,-999.0,98,-99.99,,,0.00,Acu-Link.com,2013-10-23 09:14:00,
2013-10-23 02:29:00,37.4,36.9,30.04,SE,135,0.0,-999.0,98,-99.99,,,0.00,Acu-Link.com,2013-10-23 09:29:00,
2013-10-23 02:44:00,37.4,36.9,30.04,SE,135,0.0,-999.0,98,-99.99,,,0.00,Acu-Link.com,2013-10-23 09:44:00,
2013-10-23 02:59:00,37.4,36.9,30.05,South,180,0.0,-999.0,98,-99.99,,,0.00,Acu-Link.com,2013-10-23 09:59:00,
2013-10-23 03:14:00,37.4,36.9,30.06,NE,45,0.0,-999.0,98,-99.99,,,0.00,Acu-Link.com,2013-10-23 10:14:00,
2013-10-23 03:30:00,35.6,35.1,30.06,NE,45,0.0,-999.0,98,-99.99,,,0.00,Acu-Link.com,2013-10-23 10:30:00,
2013-10-23 03:45:00,35.6,35.1,30.05,South,180,0.0,-999.0,98,-99.99,,,0.00,Acu-Link.com,2013-10-23 10:45:00,
2013-10-23 04:00:00,35.6,35.1,30.05,SSE,157,0.0,-999.0,98,-99.99,,,0.00,Acu-Link.com,2013-10-23 11:00:00,
2013-10-23 04:15:00,35.6,35.1,30.05,East,90,0.0,-999.0,98,-99.99,,,0.00,Acu-Link.com,2013-10-23 11:15:00,
2013-10-23 04:31:00,35.6,35.1,30.05,SSE,157,0.0,-999.0,98,-99.99,,,0.00,Acu-Link.com,2013-10-23 11:31:00,
2013-10-23 04:46:00,35.6,35.1,30.05,SSE,157,0.0,-999.0,98,-99.99,,,0.00,Acu-Link.com,2013-10-23 11:46:00,
2013-10-23 05:01:00,35.6,35.1,30.05,SSE,157,0.0,-999.0,98,-99.99,,,0.00,Acu-Link.com,2013-10-23 12:01:00,
2013-10-23 05:16:00,33.8,33.3,30.05,SSE,157,0.0,-999.0,98,-99.99,,,0.00,Acu-Link.com,2013-10-23 12:16:00,
2013-10-23 05:31:00,33.8,33.3,30.05,SSE,157,0.0,-999.0,98,-99.99,,,0.00,Acu-Link.com,2013-10-23 12:31:00,
2013-10-23 05:47:00,33.8,33.3,30.05,ENE,67,0.0,-999.0,98,-99.99,,,0.00,Acu-Link.com,2013-10-23 12:47:00,
2013-10-23 06:02:00,33.8,33.3,30.05,SE,135,0.0,-999.0,98,-99.99,,,0.00,Acu-Link.com,2013-10-23 13:02:00,
2013-10-23 06:17:00,33.8,33.3,30.05,SE,135,0.0,-999.0,98,-99.99,,,0.00,Acu-Link.com,2013-10-23 13:17:00,
2013-10-23 06:32:00,33.8,33.3,30.05,ESE,112,0.0,-999.0,98,-99.99,,,0.00,Acu-Link.com,2013-10-23 13:32:00,
2013-10-23 06:47:00,33.8,33.3,30.06,SSE,157,0.0,-999.0,98,-99.99,,,0.00,Acu-Link.com,2013-10-23 13:47:00,
2013-10-23 07:02:00,33.8,33.3,30.05,ENE,67,0.0,-999.0,98,-99.99,,,0.00,Acu-Link.com,2013-10-23 14:02:00,
2013-10-23 07:17:00,32.0,31.5,30.06,South,180,0.0,-999.0,98,-99.99,,,0.00,Acu-Link.com,2013-10-23 14:17:00,
2013-10-23 07:32:00,32.0,31.5,30.06,East,90,0.0,-999.0,98,-99.99,,,0.00,Acu-Link.com,2013-10-23 14:32:00,
2013-10-23 07:48:00,32.0,31.5,30.06,South,180,0.0,-999.0,98,-99.99,,,0.00,Acu-Link.com,2013-10-23 14:48:00,
2013-10-23 08:03:00,32.0,31.5,30.06,NE,45,0.0,-999.0,98,-99.99,,,0.00,Acu-Link.com,2013-10-23 15:03:00,
2013-10-23 08:18:00,32.0,31.5,30.06,SSE,157,0.0,-999.0,98,-99.99,,,0.00,Acu-Link.com,2013-10-23 15:18:00,
2013-10-23 08:33:00,32.0,31.5,30.07,SE,135,0.0,-999.0,98,-99.99,,,0.00,Acu-Link.com,2013-10-23 15:33:00,
2013-10-23 08:48:00,32.0,31.5,30.07,South,180,1.6,-999.0,98,-99.99,,,0.00,Acu-Link.com,2013-10-23 15:48:00,
2013-10-23 09:03:00,32.0,31.5,30.07,ESE,112,0.0,-999.0,98,-99.99,,,0.00,Acu-Link.com,2013-10-23 16:03:00,
2013-10-23 09:19:00,33.8,33.3,30.07,South,180,0.0,-999.0,98,-99.99,,,0.00,Acu-Link.com,2013-10-23 16:19:00,
2013-10-23 09:34:00,35.6,35.1,30.07,WSW,247,1.6,-999.0,98,-99.99,,,0.00,Acu-Link.com,2013-10-23 16:34:00,
2013-10-23 09:49:00,35.6,35.1,30.07,South,180,0.0,-999.0,98,-99.99,,,0.00,Acu-Link.com,2013-10-23 16:49:00,
2013-10-23 10:05:00,39.2,38.7,30.07,South,180,1.1,-999.0,98,-99.99,,,0.00,Acu-Link.com,2013-10-23 17:05:00,
2013-10-23 10:20:00,41.0,40.5,30.07,South,180,0.0,-999.0,98,-99.99,,,0.00,Acu-Link.com,2013-10-23 17:20:00,
2013-10-23 10:35:00,42.8,42.3,30.06,South,180,0.0,-999.0,98,-99.99,,,0.00,Acu-Link.com,2013-10-23 17:35:00,
2013-10-23 10:50:00,42.8,42.3,30.07,SSE,157,0.0,-999.0,98,-99.99,,,0.00,Acu-Link.com,2013-10-23 17:50:00,
2013-10-23 11:05:00,46.4,42.1,30.06,South,180,0.0,-999.0,85,-99.99,,,0.00,Acu-Link.com,2013-10-23 18:05:00,
2013-10-23 11:20:00,50.0,43.4,30.06,ENE,67,2.7,-999.0,78,-99.99,,,0.00,Acu-Link.com,2013-10-23 18:20:00,
2013-10-23 11:36:00,51.8,44.5,30.07,ESE,112,1.6,-999.0,76,-99.99,,,0.00,Acu-Link.com,2013-10-23 18:36:00,
2013-10-23 11:51:00,53.6,44.8,30.06,SSE,157,1.1,-999.0,72,-99.99,,,0.00,Acu-Link.com,2013-10-23 18:51:00,
2013-10-23 12:06:00,55.4,45.0,30.06,South,180,2.0,-999.0,68,-99.99,,,0.00,Acu-Link.com,2013-10-23 19:06:00,
2013-10-23 12:21:00,55.4,44.6,30.05,SSE,157,2.7,-999.0,67,-99.99,,,0.00,Acu-Link.com,2013-10-23 19:21:00,
2013-10-23 12:36:00,57.2,45.5,30.05,SSE,157,2.0,-999.0,65,-99.99,,,0.00,Acu-Link.com,2013-10-23 19:36:00,
2013-10-23 12:51:00,59.0,47.7,30.05,SSE,157,1.1,-999.0,66,-99.99,,,0.00,Acu-Link.com,2013-10-23 19:51:00,
2013-10-23 13:06:00,59.0,46.4,30.04,ESE,112,1.6,-999.0,63,-99.99,,,0.00,Acu-Link.com,2013-10-23 20:06:00,
2013-10-23 13:21:00,60.8,47.7,30.03,East,90,1.6,-999.0,62,-99.99,,,0.00,Acu-Link.com,2013-10-23 20:21:00,
2013-10-23 13:36:00,60.8,46.8,30.03,ESE,112,1.6,-999.0,60,-99.99,,,0.00,Acu-Link.com,2013-10-23 20:36:00,
2013-10-23 13:51:00,64.4,47.9,30.03,South,180,1.6,-999.0,55,-99.99,,,0.00,Acu-Link.com,2013-10-23 20:51:00,
2013-10-23 14:07:00,62.6,46.7,30.02,SSE,157,1.1,-999.0,56,-99.99,,,0.00,Acu-Link.com,2013-10-23 21:07:00,
2013-10-23 14:22:00,62.6,47.2,30.02,ESE,112,0.0,-999.0,57,-99.99,,,0.00,Acu-Link.com,2013-10-23 21:22:00,
2013-10-23 14:37:00,62.6,45.7,30.02,ESE,112,0.0,-999.0,54,-99.99,,,0.00,Acu-Link.com,2013-10-23 21:37:00,
2013-10-23 14:52:00,62.6,46.2,30.01,ENE,67,0.0,-999.0,55,-99.99,,,0.00,Acu-Link.com,2013-10-23 21:52:00,
2013-10-23 15:07:00,62.6,46.2,30.00,South,180,1.6,-999.0,55,-99.99,,,0.00,Acu-Link.com,2013-10-23 22:07:00,
2013-10-23 15:23:00,62.6,46.2,30.00,SW,225,1.6,-999.0,55,-99.99,,,0.00,Acu-Link.com,2013-10-23 22:23:00,
2013-10-23 15:38:00,62.6,45.7,30.00,ESE,112,1.6,-999.0,54,-99.99,,,0.00,Acu-Link.com,2013-10-23 22:38:00,
2013-10-23 15:53:00,62.6,46.2,29.99,South,180,1.6,-999.0,55,-99.99,,,0.00,Acu-Link.com,2013-10-23 22:53:00,
2013-10-23 16:09:00,62.6,46.7,29.99,ESE,112,1.1,-999.0,56,-99.99,,,0.00,Acu-Link.com,2013-10-23 23:09:00,
2013-10-23 16:24:00,60.8,46.4,29.99,NE,45,1.6,-999.0,59,-99.99,,,0.00,Acu-Link.com,2013-10-23 23:24:00,
2013-10-23 16:39:00,60.8,46.4,29.98,NNE,22,0.0,-999.0,59,-99.99,,,0.00,Acu-Link.com,2013-10-23 23:39:00,
2013-10-23 16:54:00,60.8,46.8,29.99,NNE,22,1.1,-999.0,60,-99.99,,,0.00,Acu-Link.com,2013-10-23 23:54:00,
2013-10-23 17:09:00,59.0,46.0,29.98,NE,45,0.0,-999.0,62,-99.99,,,0.00,Acu-Link.com,2013-10-24 00:09:00,
2013-10-23 17:24:00,57.2,45.9,29.98,ENE,67,1.6,-999.0,66,-99.99,,,0.00,Acu-Link.com,2013-10-24 00:24:00,
2013-10-23 17:40:00,55.4,45.8,29.98,ENE,67,0.0,-999.0,70,-99.99,,,0.00,Acu-Link.com,2013-10-24 00:40:00,
2013-10-23 17:55:00,53.6,45.2,29.98,NE,45,0.0,-999.0,73,-99.99,,,0.00,Acu-Link.com,2013-10-24 00:55:00,
2013-10-23 18:10:00,51.8,44.1,29.98,NE,45,0.0,-999.0,75,-99.99,,,0.00,Acu-Link.com,2013-10-24 01:10:00,
2013-10-23 18:25:00,51.8,44.8,29.98,NE,45,0.0,-999.0,77,-99.99,,,0.00,Acu-Link.com,2013-10-24 01:25:00,
2013-10-23 18:40:00,50.0,43.7,29.98,ENE,67,0.0,-999.0,79,-99.99,,,0.00,Acu-Link.com,2013-10-24 01:40:00,
2013-10-23 18:55:00,50.0,44.4,29.97,ENE,67,0.0,-999.0,81,-99.99,,,0.00,Acu-Link.com,2013-10-24 01:55:00,
2013-10-23 19:10:00,46.4,41.2,29.98,East,90,0.0,-999.0,82,-99.99,,,0.00,Acu-Link.com,2013-10-24 02:10:00,
2013-10-23 19:25:00,46.4,41.5,29.98,East,90,0.0,-999.0,83,-99.99,,,0.00,Acu-Link.com,2013-10-24 02:25:00,
2013-10-23 19:41:00,46.4,42.1,29.98,East,90,0.0,-999.0,85,-99.99,,,0.00,Acu-Link.com,2013-10-24 02:41:00,
2013-10-23 19:56:00,44.6,40.7,29.98,NE,45,0.0,-999.0,86,-99.99,,,0.00,Acu-Link.com,2013-10-24 02:56:00,
2013-10-23 20:11:00,44.6,41.0,29.97,NE,45,0.0,-999.0,87,-99.99,,,0.00,Acu-Link.com,2013-10-24 03:11:00,
2013-10-23 20:26:00,44.6,41.3,29.97,NE,45,0.0,-999.0,88,-99.99,,,0.00,Acu-Link.com,2013-10-24 03:26:00,
2013-10-23 20:42:00,42.8,39.8,29.97,NE,45,0.0,-999.0,89,-99.99,,,0.00,Acu-Link.com,2013-10-24 03:42:00,
2013-10-23 20:57:00,42.8,40.1,29.97,NE,45,0.0,-999.0,90,-99.99,,,0.00,Acu-Link.com,2013-10-24 03:57:00,
2013-10-23 21:12:00,42.8,42.3,29.97,NE,45,0.0,-999.0,98,-99.99,,,0.00,Acu-Link.com,2013-10-24 04:12:00,
2013-10-23 21:27:00,42.8,42.3,29.97,NE,45,0.0,-999.0,98,-99.99,,,0.00,Acu-Link.com,2013-10-24 04:27:00,
2013-10-23 21:42:00,41.0,40.5,29.97,NE,45,0.0,-999.0,98,-99.99,,,0.00,Acu-Link.com,2013-10-24 04:42:00,
2013-10-23 21:58:00,41.0,40.5,29.97,NE,45,0.0,-999.0,98,-99.99,,,0.00,Acu-Link.com,2013-10-24 04:58:00,
2013-10-23 22:13:00,41.0,40.5,29.97,NE,45,0.0,-999.0,98,-99.99,,,0.00,Acu-Link.com,2013-10-24 05:13:00,
2013-10-23 22:28:00,41.0,40.5,29.97,East,90,0.0,-999.0,98,-99.99,,,0.00,Acu-Link.com,2013-10-24 05:28:00,
2013-10-23 22:44:00,41.0,40.5,29.98,East,90,0.0,-999.0,98,-99.99,,,0.00,Acu-Link.com,2013-10-24 05:44:00,
2013-10-23 22:59:00,39.2,38.7,29.97,East,90,0.0,-999.0,98,-99.99,,,0.00,Acu-Link.com,2013-10-24 05:59:00,
2013-10-23 23:14:00,39.2,38.7,29.97,East,90,0.0,-999.0,98,-99.99,,,0.00,Acu-Link.com,2013-10-24 06:14:00,
2013-10-23 23:29:00,39.2,38.7,29.98,East,90,0.0,-999.0,98,-99.99,,,0.00,Acu-Link.com,2013-10-24 06:29:00,
2013-10-23 23:44:00,39.2,38.7,29.97,East,90,0.0,-999.0,98,-99.99,,,0.00,Acu-Link.com,2013-10-24 06:44:00,